Time;durP1;ratioP1;P1;durP2;ratioP2;P2;SDS_P1;SDS_P2;PMS_P1;PMS_P2;Temp;Humidity;BMP_temperature;BMP_pressure;BME280_temperature;BME280_humidity;BME280_pressure;Samples;Min_cycle;Max_cycle;Signal;HPM_P1;HPM_P2
2022/10/16 00:00:40;;;;;;;0.10;0.10;;;;;;;4.39;67.46;100980.59;4989234;28;20085;-66
2022/10/16 00:03:07;;;;;;;0.10;0.10;;;;;;;4.35;67.49;100982.88;4988648;28;20058;-65
2022/10/16 00:05:33;;;;;;;0.00;0.00;;;;;;;4.34;67.50;100988.50;4986430;28;20066;-65
2022/10/16 00:07:59;;;;;;;0.10;0.10;;;;;;;4.32;67.54;100983.28;4986933;28;20080;-65
2022/10/16 00:10:26;;;;;;;0.10;0.10;;;;;;;4.32;67.65;100985.16;4975403;28;20066;-65
2022/10/16 00:12:52;;;;;;;0.22;0.10;;;;;;;4.31;67.78;100986.22;4968529;28;20895;-65
2022/10/16 00:15:18;;;;;;;0.10;0.10;;;;;;;4.30;67.43;100982.66;4967333;28;20042;-64
2022/10/16 00:17:44;;;;;;;0.10;0.10;;;;;;;4.28;67.41;100982.03;4965513;28;20494;-63
2022/10/16 00:20:10;;;;;;;0.10;0.10;;;;;;;4.27;67.61;100985.78;4971237;28;20104;-63
2022/10/16 00:22:55;;;;;;;0.10;0.10;;;;;;;4.21;67.91;100986.56;4987314;28;20048;-64
2022/10/16 00:25:21;;;;;;;0.10;0.10;;;;;;;4.17;68.00;100988.88;4988050;28;20046;-63
2022/10/16 00:27:48;;;;;;;0.10;0.10;;;;;;;4.15;68.33;100990.09;4987787;28;20481;-64
2022/10/16 00:30:14;;;;;;;0.45;0.20;;;;;;;4.13;68.31;100994.88;4986925;28;20046;-63
2022/10/16 00:32:40;;;;;;;0.20;0.10;;;;;;;3.96;68.27;100973.59;4987140;28;20140;-63
2022/10/16 00:35:06;;;;;;;0.10;0.10;;;;;;;4.06;68.63;100993.00;4988989;28;20046;-64
2022/10/16 00:37:32;;;;;;;0.10;0.10;;;;;;;4.03;68.59;100996.09;4987572;28;20426;-63
2022/10/16 00:39:58;;;;;;;0.20;0.10;;;;;;;4.03;68.77;100998.78;4986302;28;20050;-66
2022/10/16 00:42:24;;;;;;;0.10;0.10;;;;;;;4.01;68.99;101000.06;4982996;28;20054;-65
2022/10/16 00:44:55;;;;;;;0.20;0.10;;;;;;;4.02;69.04;100996.31;4980477;28;20439;-65
2022/10/16 00:47:24;;;;;;;0.10;0.10;;;;;;;4.00;69.05;100993.78;4965820;28;20076;-65
2022/10/16 00:49:53;;;;;;;0.10;0.10;;;;;;;3.99;69.05;100994.81;4966755;28;20426;-64
2022/10/16 00:52:20;;;;;;;0.10;0.10;;;;;;;3.93;69.22;100993.75;4966781;28;20572;-65
2022/10/16 00:54:47;;;;;;;0.10;0.10;;;;;;;3.94;69.00;101000.03;4966867;28;20510;-65
2022/10/16 00:57:13;;;;;;;0.10;0.10;;;;;;;3.94;69.25;101003.53;4965442;28;20046;-65
2022/10/16 00:59:40;;;;;;;0.10;0.10;;;;;;;3.95;69.18;101004.41;4966427;28;20532;-65
2022/10/16 01:02:10;;;;;;;0.10;0.10;;;;;;;3.91;69.35;101003.97;4966736;28;20082;-65
2022/10/16 01:04:39;;;;;;;0.10;0.10;;;;;;;3.88;69.39;101012.47;4985409;28;20763;-65
2022/10/16 01:07:12;;;;;;;0.10;0.10;;;;;;;3.85;69.63;101004.78;4986504;28;20045;-66
2022/10/16 01:09:47;;;;;;;0.10;0.10;;;;;;;3.79;69.87;101011.81;4988731;28;20054;-65
2022/10/16 01:12:22;;;;;;;0.10;0.10;;;;;;;3.79;69.76;101009.09;4988469;28;20047;-65
2022/10/16 01:14:54;;;;;;;0.10;0.10;;;;;;;3.75;69.93;101015.13;4971976;28;20458;-66
2022/10/16 01:17:27;;;;;;;0.10;0.10;;;;;;;3.74;69.94;101010.75;4968087;28;20093;-65
2022/10/16 01:20:07;;;;;;;0.10;0.10;;;;;;;3.75;69.95;101017.81;4966227;28;20047;-65
2022/10/16 01:22:43;;;;;;;0.10;0.10;;;;;;;3.75;69.65;101012.41;4964778;28;20059;-65
2022/10/16 01:25:16;;;;;;;0.10;0.10;;;;;;;3.72;69.93;101013.63;4970733;28;20093;-65
2022/10/16 01:27:46;;;;;;;0.20;0.20;;;;;;;3.67;69.92;101008.84;4984622;28;20061;-66
2022/10/16 01:30:17;;;;;;;0.10;0.10;;;;;;;3.67;69.99;101014.25;4985253;28;20650;-67
2022/10/16 01:32:49;;;;;;;0.10;0.10;;;;;;;3.70;69.84;101018.41;4984550;28;20506;-65
2022/10/16 01:35:22;;;;;;;0.10;0.10;;;;;;;3.64;69.98;101011.09;4986059;28;20048;-65
2022/10/16 01:37:54;;;;;;;0.10;0.10;;;;;;;3.68;69.92;101018.63;4984233;28;20430;-65
2022/10/16 01:40:23;;;;;;;0.10;0.10;;;;;;;3.67;69.93;101016.09;4986767;28;20516;-65
2022/10/16 01:42:56;;;;;;;0.10;0.10;;;;;;;3.65;70.01;101023.59;4987709;28;20058;-65
2022/10/16 01:45:22;;;;;;;0.10;0.10;;;;;;;3.64;70.05;101017.34;4987368;28;20109;-64
2022/10/16 01:47:51;;;;;;;0.10;0.10;;;;;;;3.65;69.93;101023.59;4984150;28;20060;-65
2022/10/16 01:50:20;;;;;;;0.10;0.10;;;;;;;3.61;70.03;101025.84;4983810;28;20058;-65
2022/10/16 01:52:49;;;;;;;0.10;0.10;;;;;;;3.61;70.08;101028.56;4984814;28;20133;-64
2022/10/16 01:55:20;;;;;;;0.10;0.10;;;;;;;3.45;70.05;100999.97;4985801;28;20527;-65
2022/10/16 01:57:49;;;;;;;0.10;0.10;;;;;;;3.60;69.99;101021.47;4967950;28;20063;-65
2022/10/16 02:00:19;;;;;;;0.10;0.10;;;;;;;3.60;70.07;101031.47;4967182;28;20585;-65
2022/10/16 02:02:49;;;;;;;0.10;0.10;;;;;;;3.59;70.03;101030.63;4965007;28;20064;-65
2022/10/16 02:05:21;;;;;;;0.10;0.10;;;;;;;3.55;70.13;101030.19;4966213;28;20142;-65
2022/10/16 02:07:48;;;;;;;0.10;0.10;;;;;;;3.53;70.02;101028.72;4976906;28;20057;-66
2022/10/16 02:10:14;;;;;;;0.10;0.10;;;;;;;3.50;70.17;101024.53;4983011;28;20050;-64
2022/10/16 02:12:45;;;;;;;0.10;0.10;;;;;;;3.50;70.12;101019.13;4981580;28;20125;-64
2022/10/16 02:15:11;;;;;;;0.10;0.10;;;;;;;3.51;70.26;101038.88;4983154;28;20050;-64
2022/10/16 02:17:39;;;;;;;0.10;0.10;;;;;;;3.48;70.18;101036.56;4982137;28;20124;-65
2022/10/16 02:20:05;;;;;;;0.10;0.10;;;;;;;3.45;70.25;101032.41;4984764;28;20100;-65
2022/10/16 02:22:36;;;;;;;0.10;0.10;;;;;;;3.44;70.40;101035.31;4970225;28;20085;-65
2022/10/16 02:25:08;;;;;;;0.10;0.10;;;;;;;3.43;70.58;101036.34;4965836;28;20141;-64
2022/10/16 02:27:40;;;;;;;0.10;0.10;;;;;;;3.37;70.67;101036.09;4969463;28;20058;-64
2022/10/16 02:30:10;;;;;;;0.10;0.10;;;;;;;3.35;70.79;101032.72;4969324;28;20082;-65
2022/10/16 02:32:42;;;;;;;0.10;0.10;;;;;;;3.33;71.02;101033.97;4966615;28;20495;-65
2022/10/16 02:35:09;;;;;;;0.10;0.10;;;;;;;3.33;71.00;101042.09;4964466;28;20529;-65
2022/10/16 02:37:36;;;;;;;0.10;0.10;;;;;;;3.32;71.09;101046.66;4966173;28;20058;-65
2022/10/16 02:40:04;;;;;;;0.10;0.10;;;;;;;3.31;70.99;101042.28;4965588;28;20074;-66
2022/10/16 02:42:34;;;;;;;0.10;0.10;;;;;;;3.30;70.85;101043.31;4970222;28;20050;-65
2022/10/16 02:45:00;;;;;;;0.10;0.10;;;;;;;3.30;71.16;101040.63;4962250;28;20078;-65
2022/10/16 02:47:26;;;;;;;0.10;0.10;;;;;;;3.30;71.07;101045.19;4963438;28;20149;-66
2022/10/16 02:49:53;;;;;;;0.10;0.10;;;;;;;3.28;71.22;101045.38;4964170;28;20553;-65
2022/10/16 02:52:19;;;;;;;;;;;;;;;3.25;71.38;101040.38;4985369;28;20105;-65
2022/10/16 02:54:45;;;;;;;0.10;0.10;;;;;;;3.22;71.17;101047.00;4984852;28;20345;-63
2022/10/16 02:57:11;;;;;;;0.10;0.10;;;;;;;3.19;71.42;101050.09;4984346;28;20081;-66
2022/10/16 02:59:37;;;;;;;0.10;0.10;;;;;;;3.21;71.36;101056.13;4969344;28;20133;-65
2022/10/16 03:02:03;;;;;;;0.10;0.10;;;;;;;3.16;71.55;101052.34;4979155;28;20168;-65
2022/10/16 03:04:29;;;;;;;0.10;0.10;;;;;;;3.12;71.79;101050.03;4984409;28;20050;-65
2022/10/16 03:06:56;;;;;;;0.00;0.00;;;;;;;3.09;71.98;101052.28;4985059;28;20077;-65
2022/10/16 03:09:22;;;;;;;0.10;0.10;;;;;;;3.09;72.04;101052.28;4984301;28;20043;-65
2022/10/16 03:11:48;;;;;;;0.10;0.10;;;;;;;3.06;71.98;101045.41;4983938;28;20061;-65
2022/10/16 03:14:14;;;;;;;0.10;0.10;;;;;;;3.09;72.05;101057.69;4984496;28;20412;-65
2022/10/16 03:16:41;;;;;;;0.10;0.10;;;;;;;3.07;72.01;101057.91;4983201;28;20541;-65
2022/10/16 03:19:07;;;;;;;0.00;0.00;;;;;;;3.03;72.08;101067.41;4984836;28;20050;-65
2022/10/16 03:21:33;;;;;;;0.10;0.10;;;;;;;3.02;72.12;101056.81;4984608;28;20145;-65
2022/10/16 03:24:00;;;;;;;0.10;0.10;;;;;;;3.01;72.25;101065.94;4981746;28;20502;-65
2022/10/16 03:26:26;;;;;;;0.00;0.00;;;;;;;3.01;71.89;101055.97;4985998;28;20476;-65
2022/10/16 03:28:52;;;;;;;0.10;0.10;;;;;;;2.96;72.14;101064.63;4985418;28;20057;-65
2022/10/16 03:31:18;;;;;;;0.40;0.10;;;;;;;2.95;72.46;101059.44;4985892;28;20054;-65
2022/10/16 03:33:44;;;;;;;0.10;0.10;;;;;;;2.93;72.39;101061.50;4988213;28;20096;-65
2022/10/16 03:36:10;;;;;;;0.10;0.10;;;;;;;2.91;72.66;101063.56;4987884;28;20046;-64
2022/10/16 03:38:36;;;;;;;0.10;0.10;;;;;;;2.92;72.80;101073.34;4986644;28;20683;-66
2022/10/16 03:41:04;;;;;;;0.10;0.10;;;;;;;2.78;72.71;101050.75;4989014;28;20073;-62
2022/10/16 03:43:29;;;;;;;;;;;;;;;2.90;72.55;101064.59;4982787;28;20063;-63
2022/10/16 03:45:55;;;;;;;0.10;0.10;;;;;;;2.87;72.60;101067.66;4967381;28;20195;-65
2022/10/16 03:48:21;;;;;;;0.00;0.00;;;;;;;2.88;72.73;101072.03;4968001;28;20411;-65
2022/10/16 03:50:48;;;;;;;0.10;0.10;;;;;;;2.86;72.74;101072.25;4966154;28;20078;-65
2022/10/16 03:53:14;;;;;;;0.10;0.10;;;;;;;2.84;72.80;101069.72;4983972;28;20046;-65
2022/10/16 03:55:41;;;;;;;0.10;0.10;;;;;;;2.82;73.06;101079.88;4969949;28;20117;-65
2022/10/16 03:58:08;;;;;;;;;;;;;;;2.84;72.93;101082.41;4969287;28;20058;-65
2022/10/16 04:00:34;;;;;;;0.10;0.10;;;;;;;2.80;72.72;101073.84;4967378;28;19926;-65
2022/10/16 04:03:01;;;;;;;0.00;0.00;;;;;;;2.78;73.01;101075.91;4965848;28;20254;-65
2022/10/16 04:05:27;;;;;;;0.10;0.10;;;;;;;2.78;72.99;101075.91;4976230;28;20064;-65
2022/10/16 04:07:52;;;;;;;0.10;0.10;;;;;;;2.75;73.24;101073.59;4982344;28;20046;-65
2022/10/16 04:10:19;;;;;;;0.00;0.00;;;;;;;2.75;73.38;101091.66;4986417;28;20565;-65
2022/10/16 04:12:45;;;;;;;0.10;0.10;;;;;;;2.76;73.51;101087.91;4987233;28;20046;-65
2022/10/16 04:15:12;;;;;;;0.10;0.10;;;;;;;2.78;73.54;101077.75;4983896;28;20112;-65
2022/10/16 04:17:38;;;;;;;0.17;0.10;;;;;;;2.81;73.46;101072.81;4978039;28;20410;-64
2022/10/16 04:20:05;;;;;;;0.10;0.10;;;;;;;2.80;73.44;101071.16;4982351;28;20386;-65
2022/10/16 04:22:31;;;;;;;0.10;0.10;;;;;;;2.81;73.63;101066.56;4982959;28;20053;-66
2022/10/16 04:24:57;;;;;;;0.10;0.10;;;;;;;2.84;73.40;101072.44;4986484;28;20053;-63
2022/10/16 04:27:23;;;;;;;0.10;0.10;;;;;;;2.86;73.38;101074.94;4984746;28;20447;-63
2022/10/16 04:29:49;;;;;;;0.10;0.10;;;;;;;2.90;73.49;101076.22;4973276;28;20050;-63
2022/10/16 04:32:16;;;;;;;0.10;0.10;;;;;;;2.90;73.20;101070.00;4974128;28;20053;-63
2022/10/16 04:34:42;;;;;;;0.10;0.10;;;;;;;2.91;73.30;101082.47;4980614;28;20142;-63
2022/10/16 04:37:08;;;;;;;0.20;0.20;;;;;;;2.94;73.23;101084.78;4986985;28;20149;-63
2022/10/16 04:39:34;;;;;;;0.35;0.10;;;;;;;2.95;72.94;101081.06;4987964;28;20057;-62
2022/10/16 04:42:00;;;;;;;0.10;0.10;;;;;;;2.97;72.82;101089.81;4983558;28;20053;-64
2022/10/16 04:44:26;;;;;;;0.20;0.20;;;;;;;3.00;72.95;101086.72;4986757;28;20046;-63
2022/10/16 04:46:52;;;;;;;0.10;0.10;;;;;;;3.05;72.68;101083.44;4982447;28;20540;-63
2022/10/16 04:49:19;;;;;;;0.10;0.10;;;;;;;3.09;72.40;101096.38;4986689;28;20046;-62
2022/10/16 04:51:45;;;;;;;0.45;0.20;;;;;;;3.12;72.31;101092.44;4983969;28;20104;-64
2022/10/16 04:54:11;;;;;;;0.10;0.10;;;;;;;3.23;71.60;101091.91;4986791;28;20046;-65
2022/10/16 04:56:45;;;;;;;0.10;0.10;;;;;;;3.33;71.18;101093.47;4986934;28;20042;-65
2022/10/16 04:59:12;;;;;;;0.20;0.20;;;;;;;3.34;70.94;101097.84;4988597;28;20138;-63
2022/10/16 05:01:38;;;;;;;0.10;0.10;;;;;;;3.34;70.82;101098.66;4983931;28;20046;-64
2022/10/16 05:04:04;;;;;;;0.20;0.20;;;;;;;3.36;70.66;101103.88;4985686;28;20050;-63
2022/10/16 05:06:31;;;;;;;0.10;0.10;;;;;;;3.35;70.80;101102.22;4985965;28;20076;-63
2022/10/16 05:08:57;;;;;;;0.35;0.10;;;;;;;3.32;70.86;101105.31;4981644;28;20046;-64
2022/10/16 05:11:23;;;;;;;0.10;0.10;;;;;;;3.35;70.98;101099.50;4983701;28;20113;-64
2022/10/16 05:13:49;;;;;;;0.10;0.10;;;;;;;3.44;70.71;101103.75;4987363;28;20050;-64
2022/10/16 05:16:15;;;;;;;0.30;0.22;;;;;;;3.51;70.40;101101.09;4987887;28;20057;-62
2022/10/16 05:18:41;;;;;;;0.35;0.10;;;;;;;3.55;70.35;101110.50;4984451;28;20562;-63
2022/10/16 05:21:07;;;;;;;0.10;0.10;;;;;;;3.60;70.00;101097.22;4983773;28;20090;-62
2022/10/16 05:23:35;;;;;;;0.10;0.10;;;;;;;3.63;70.07;101096.00;4985166;28;20133;-63
2022/10/16 05:26:01;;;;;;;0.10;0.10;;;;;;;3.66;69.88;101103.72;4985164;28;20042;-63
2022/10/16 05:28:28;;;;;;;0.10;0.10;;;;;;;3.63;69.64;101099.50;4984618;28;20133;-64
2022/10/16 05:30:54;;;;;;;0.10;0.10;;;;;;;3.74;69.66;101113.53;4985459;28;20109;-63
2022/10/16 05:33:20;;;;;;;0.10;0.10;;;;;;;3.79;69.24;101117.34;4986647;28;20050;-63
2022/10/16 05:35:46;;;;;;;0.20;0.20;;;;;;;3.81;69.25;101109.84;4985098;28;20074;-64
2022/10/16 05:38:12;;;;;;;0.10;0.10;;;;;;;3.85;69.16;101115.72;4983178;28;20039;-63
2022/10/16 05:40:40;;;;;;;0.13;0.13;;;;;;;3.89;69.09;101118.84;4965022;28;20437;-64
2022/10/16 05:43:05;;;;;;;0.10;0.10;;;;;;;3.94;68.91;101117.22;4967804;28;20142;-63
2022/10/16 05:45:31;;;;;;;0.20;0.20;;;;;;;3.97;68.76;101119.50;4969370;28;20249;-63
2022/10/16 05:47:57;;;;;;;1.48;0.15;;;;;;;4.01;68.50;101116.44;4967728;28;20050;-63
2022/10/16 05:50:23;;;;;;;0.22;0.22;;;;;;;4.05;68.30;101123.13;4975582;28;20080;-63
2022/10/16 05:52:49;;;;;;;0.10;0.10;;;;;;;4.11;68.15;101115.03;4982248;28;20047;-63
2022/10/16 05:55:15;;;;;;;0.25;0.20;;;;;;;4.01;67.90;101087.47;4985010;28;20052;-62
2022/10/16 05:57:42;;;;;;;1.35;0.32;;;;;;;4.20;67.80;101106.72;4983391;28;20525;-63
2022/10/16 06:00:10;;;;;;;0.38;0.20;;;;;;;4.34;67.55;101115.78;4983885;28;20054;-63
2022/10/16 06:02:39;;;;;;;0.20;0.20;;;;;;;4.39;67.47;101124.13;4983316;28;20504;-62
2022/10/16 06:05:06;;;;;;;0.10;0.10;;;;;;;4.48;67.34;101125.63;4986076;28;20058;-63
2022/10/16 06:07:34;;;;;;;0.10;0.10;;;;;;;4.53;66.71;101125.03;4986221;28;20058;-65
2022/10/16 06:10:00;;;;;;;0.10;0.10;;;;;;;4.57;66.78;101129.00;4986450;28;20287;-67
2022/10/16 06:12:27;;;;;;;0.13;0.13;;;;;;;4.60;66.36;101136.72;4987062;28;20189;-65
2022/10/16 06:14:54;;;;;;;0.10;0.10;;;;;;;4.64;66.28;101134.44;4980417;28;20061;-65
2022/10/16 06:17:20;;;;;;;0.10;0.10;;;;;;;4.69;66.28;101134.66;4981539;28;20481;-66
2022/10/16 06:19:46;;;;;;;0.40;0.20;;;;;;;4.74;65.94;101132.19;4998231;28;20056;-65
2022/10/16 06:22:12;;;;;;;0.10;0.10;;;;;;;4.82;65.72;101131.16;4982805;28;20050;-65
2022/10/16 06:24:38;;;;;;;0.15;0.15;;;;;;;4.87;65.52;101131.41;4974595;28;20125;-65
2022/10/16 06:27:04;;;;;;;0.20;0.20;;;;;;;4.94;65.60;101126.00;4964457;28;20054;-66
2022/10/16 06:29:30;;;;;;;0.20;0.20;;;;;;;5.00;65.25;101127.06;4965133;28;20057;-65
2022/10/16 06:31:58;;;;;;;0.20;0.20;;;;;;;5.07;65.02;101127.91;4963858;28;20514;-66
2022/10/16 06:34:24;;;;;;;0.20;0.20;;;;;;;5.13;64.51;101131.66;4959741;28;20049;-65
2022/10/16 06:36:50;;;;;;;0.20;0.20;;;;;;;5.18;64.25;101131.88;4965216;28;20313;-65
2022/10/16 06:39:16;;;;;;;0.40;0.20;;;;;;;5.20;63.95;101137.91;4963390;28;20050;-66
2022/10/16 06:41:42;;;;;;;0.10;0.10;;;;;;;5.23;64.07;101132.94;4963631;28;20557;-66
2022/10/16 06:44:17;;;;;;;0.20;0.20;;;;;;;5.30;63.89;101138.38;4963834;28;20093;-66
2022/10/16 06:46:43;;;;;;;0.20;0.20;;;;;;;5.39;63.40;101137.13;4974450;28;20050;-65
2022/10/16 06:49:10;;;;;;;0.80;0.13;;;;;;;5.43;63.13;101139.44;4982663;28;20077;-65
2022/10/16 06:51:40;;;;;;;0.17;0.17;;;;;;;5.45;63.00;101143.59;4983595;28;20046;-66
2022/10/16 06:54:07;;;;;;;0.20;0.20;;;;;;;5.48;62.94;101134.19;4983746;28;20050;-63
2022/10/16 06:56:34;;;;;;;0.85;0.30;;;;;;;5.57;62.80;101137.53;4978620;28;20047;-64
2022/10/16 06:59:00;;;;;;;0.20;0.20;;;;;;;5.66;62.55;101141.72;4965390;28;20062;-64
2022/10/16 07:01:28;;;;;;;0.10;0.10;;;;;;;5.84;62.12;101134.81;4966582;28;20133;-63
2022/10/16 07:03:54;;;;;;;0.22;0.20;;;;;;;6.08;61.42;101146.94;4968565;28;20162;-63
2022/10/16 07:06:23;;;;;;;0.20;0.20;;;;;;;6.43;60.66;101138.47;4967273;28;20585;-63
2022/10/16 07:08:49;;;;;;;0.30;0.30;;;;;;;6.78;59.40;101150.88;4969118;28;20042;-63
2022/10/16 07:11:18;;;;;;;0.20;0.20;;;;;;;7.22;58.12;101148.31;4968842;28;20061;-63
2022/10/16 07:13:45;;;;;;;0.55;0.38;;;;;;;7.55;56.87;101136.38;4971916;28;20141;-63
2022/10/16 07:16:13;;;;;;;0.40;0.30;;;;;;;7.88;55.59;101139.88;4968981;28;20549;-63
2022/10/16 07:18:41;;;;;;;0.30;0.30;;;;;;;8.14;55.08;101146.13;4950400;28;20058;-64
2022/10/16 07:21:09;;;;;;;0.20;0.20;;;;;;;8.55;53.83;101154.72;4968787;28;20051;-66
2022/10/16 07:23:36;;;;;;;0.20;0.20;;;;;;;8.93;52.69;101148.13;4967495;28;20078;-65
2022/10/16 07:26:04;;;;;;;0.20;0.20;;;;;;;9.33;51.58;101155.75;4966732;28;20070;-66
2022/10/16 07:28:31;;;;;;;0.20;0.20;;;;;;;9.57;50.70;101146.78;4972455;28;20043;-64
2022/10/16 07:31:01;;;;;;;0.30;0.30;;;;;;;9.96;49.83;101147.16;4967895;28;20097;-66
2022/10/16 07:33:28;;;;;;;0.75;0.30;;;;;;;10.32;48.76;101145.25;4969575;28;20133;-65
2022/10/16 07:35:54;;;;;;;0.60;0.30;;;;;;;10.48;48.14;101151.06;4966118;28;20576;-65
2022/10/16 07:38:21;;;;;;;0.20;0.20;;;;;;;10.59;47.64;101144.72;4965646;28;20133;-66
2022/10/16 07:40:56;;;;;;;0.30;0.30;;;;;;;10.83;46.99;101144.66;4969504;28;20426;-66
2022/10/16 07:43:22;;;;;;;0.65;0.30;;;;;;;11.03;46.55;101148.84;4965582;28;20317;-64
2022/10/16 07:45:49;;;;;;;0.52;0.38;;;;;;;11.16;46.19;101155.91;4966643;28;20046;-65
2022/10/16 07:48:17;;;;;;;0.25;0.25;;;;;;;11.27;45.70;101159.69;4968814;28;20047;-64
2022/10/16 07:50:44;;;;;;;0.35;0.30;;;;;;;11.28;45.69;101151.22;4966664;28;20121;-66
2022/10/16 07:53:11;;;;;;;0.20;0.20;;;;;;;11.63;44.91;101152.09;4622373;28;10000360;-65
2022/10/16 07:55:40;;;;;;;0.52;0.30;;;;;;;11.85;44.11;101137.63;4976018;28;20134;-66
2022/10/16 07:58:08;;;;;;;0.30;0.30;;;;;;;12.04;44.13;101143.69;4985493;28;20042;-66
2022/10/16 08:00:35;;;;;;;;;;;;;;;12.19;43.29;101138.44;4981704;28;20094;-66
2022/10/16 08:03:01;;;;;;;0.20;0.20;;;;;;;12.40;43.14;101143.38;4981355;28;20032;-65
2022/10/16 08:05:28;;;;;;;0.45;0.25;;;;;;;12.54;42.56;101149.28;4984922;28;20124;-66
2022/10/16 08:07:55;;;;;;;0.30;0.30;;;;;;;12.59;42.53;101146.63;4959522;28;20050;-65
2022/10/16 08:10:23;;;;;;;0.60;0.30;;;;;;;12.88;42.29;101141.75;4984322;28;20058;-65
2022/10/16 08:12:48;;;;;;;;;;;;;;;13.10;41.47;101149.09;4983199;28;20054;-64
2022/10/16 08:15:16;;;;;;;0.30;0.30;;;;;;;13.37;40.83;101147.44;4983877;28;20400;-64
2022/10/16 08:17:42;;;;;;;;;;;;;;;13.40;40.78;101149.66;4983793;28;20581;-64
2022/10/16 08:20:09;;;;;;;0.30;0.30;;;;;;;13.36;41.01;101152.09;4973729;28;20033;-64
2022/10/16 08:22:35;;;;;;;0.30;0.30;;;;;;;13.54;40.66;101153.69;4983177;28;20299;-64
2022/10/16 08:25:01;;;;;;;0.55;0.22;;;;;;;13.82;39.98;101146.22;4983064;28;20490;-64
2022/10/16 08:27:31;;;;;;;0.20;0.20;;;;;;;13.90;39.76;101145.69;4983639;28;20509;-64
2022/10/16 08:29:57;;;;;;;0.30;0.30;;;;;;;13.95;39.74;101146.81;4983857;28;20047;-66
2022/10/16 08:32:24;;;;;;;0.20;0.20;;;;;;;13.72;40.10;101148.88;4989282;28;20052;-64
2022/10/16 08:34:51;;;;;;;0.30;0.30;;;;;;;13.65;39.71;101107.88;4983631;28;20099;-64
2022/10/16 08:37:16;;;;;;;0.40;0.40;;;;;;;14.10;39.45;101135.91;4977955;28;20050;-64
2022/10/16 08:39:42;;;;;;;0.55;0.40;;;;;;;14.01;39.45;101141.09;4962473;28;20067;-64
2022/10/16 08:42:24;;;;;;;0.40;0.40;;;;;;;14.02;39.51;101144.69;4964188;28;20146;-64
2022/10/16 08:45:15;;;;;;;0.30;0.30;;;;;;;14.27;39.10;101141.25;4964029;28;20054;-64
2022/10/16 08:47:53;;;;;;;0.32;0.32;;;;;;;14.87;38.40;101140.97;4968107;28;20072;-64
2022/10/16 08:50:24;;;;;;;0.30;0.30;;;;;;;15.42;37.29;101139.69;4964473;28;20046;-64
2022/10/16 08:52:51;;;;;;;0.30;0.30;;;;;;;15.52;37.03;101139.66;4965642;28;20113;-66
2022/10/16 08:55:30;;;;;;;0.40;0.40;;;;;;;15.74;36.45;101136.63;4965671;28;20109;-65
2022/10/16 08:57:56;;;;;;;0.40;0.40;;;;;;;15.97;35.65;101145.47;4967043;28;20061;-64
2022/10/16 09:00:23;;;;;;;0.82;0.40;;;;;;;15.97;35.33;101130.81;4978587;28;20145;-65
2022/10/16 09:02:57;;;;;;;0.50;0.50;;;;;;;15.84;35.75;101138.56;4985171;28;20108;-64
2022/10/16 09:05:46;;;;;;;0.50;0.50;;;;;;;16.00;35.27;101142.13;4983990;28;20090;-64
2022/10/16 09:08:22;;;;;;;0.50;0.50;;;;;;;16.08;34.77;101150.94;4978883;28;20097;-66
2022/10/16 09:10:57;;;;;;;0.43;0.43;;;;;;;16.05;35.04;101137.72;4975086;28;20691;-66
2022/10/16 09:13:28;;;;;;;0.60;0.60;;;;;;;16.29;34.21;101146.19;4981398;28;20053;-66
2022/10/16 09:16:04;;;;;;;0.60;0.60;;;;;;;16.42;33.94;101142.84;4984178;28;20050;-66
2022/10/16 09:18:40;;;;;;;0.60;0.60;;;;;;;16.35;33.84;101131.28;4981800;28;20407;-66
2022/10/16 09:21:14;;;;;;;0.60;0.60;;;;;;;16.52;33.45;101139.22;4980200;28;20090;-65
2022/10/16 09:23:40;;;;;;;0.63;0.63;;;;;;;16.73;33.65;101128.09;4963117;28;20043;-65
2022/10/16 09:26:11;;;;;;;0.70;0.70;;;;;;;17.19;32.81;101128.94;4975576;28;20050;-65
2022/10/16 09:28:37;;;;;;;0.70;0.70;;;;;;;17.48;32.17;101131.75;4980367;28;20043;-66
2022/10/16 09:31:03;;;;;;;0.75;0.75;;;;;;;17.62;32.14;101144.91;4981085;28;20505;-65
2022/10/16 09:33:37;;;;;;;0.70;0.70;;;;;;;17.78;31.54;101138.13;4985315;28;20129;-65
2022/10/16 09:36:05;;;;;;;0.80;0.80;;;;;;;17.71;31.56;101119.13;4964638;28;20051;-65
2022/10/16 09:38:35;;;;;;;0.90;0.90;;;;;;;17.92;31.10;101126.38;4965411;28;20047;-65
2022/10/16 09:41:15;;;;;;;0.80;0.80;;;;;;;18.11;31.03;101130.06;4963114;28;20047;-65
2022/10/16 09:43:46;;;;;;;0.80;0.80;;;;;;;17.93;31.01;101139.09;4965660;28;20054;-65
2022/10/16 09:46:24;;;;;;;0.80;0.80;;;;;;;17.75;31.38;101118.53;4949169;28;20053;-64
2022/10/16 09:48:55;;;;;;;0.80;0.80;;;;;;;18.09;30.98;101124.03;4962056;28;20050;-65
2022/10/16 09:51:24;;;;;;;0.90;0.90;;;;;;;18.31;30.67;101117.13;4966401;28;20055;-65
2022/10/16 09:53:55;;;;;;;0.90;0.90;;;;;;;17.98;30.84;101123.28;4982408;28;20656;-65
2022/10/16 09:56:23;;;;;;;0.98;0.98;;;;;;;17.98;30.95;101119.66;4986952;28;20047;-65
2022/10/16 09:58:51;;;;;;;1.00;1.00;;;;;;;18.35;29.93;101103.50;4982140;28;20053;-65
2022/10/16 10:01:19;;;;;;;0.90;0.90;;;;;;;18.56;29.07;101104.09;4982859;28;20517;-65
2022/10/16 10:03:46;;;;;;;0.98;0.98;;;;;;;18.84;29.47;101118.13;4953975;28;20831;-65
2022/10/16 10:06:22;;;;;;;0.95;0.93;;;;;;;19.16;28.97;101102.69;4965302;28;20469;-65
2022/10/16 10:08:56;;;;;;;0.90;0.90;;;;;;;19.68;28.02;101101.81;4967446;28;20079;-65
2022/10/16 10:11:45;;;;;;;1.00;1.00;;;;;;;19.46;27.93;101094.16;4976203;28;20374;-65
2022/10/16 10:14:18;;;;;;;1.10;1.10;;;;;;;19.50;27.46;101109.91;4974576;28;20054;-64
2022/10/16 10:16:45;;;;;;;1.00;1.00;;;;;;;18.94;28.07;101126.25;4962678;28;20053;-66
2022/10/16 10:19:15;;;;;;;1.20;1.10;;;;;;;18.41;28.44;101108.69;4963492;28;20423;-66
2022/10/16 10:21:43;;;;;;;1.10;1.10;;;;;;;18.22;29.01;101107.84;4979384;28;20476;-66
2022/10/16 10:24:11;;;;;;;1.10;1.10;;;;;;;18.48;28.32;101124.13;4998957;28;20054;-65
2022/10/16 10:26:41;;;;;;;1.35;1.10;;;;;;;18.02;29.33;101129.06;4965568;28;20582;-65
2022/10/16 10:29:15;;;;;;;1.10;1.10;;;;;;;18.19;28.65;101111.19;4974687;28;20077;-64
2022/10/16 10:31:49;;;;;;;1.10;1.10;;;;;;;18.35;29.05;101115.44;4982563;28;20046;-65
2022/10/16 10:34:26;;;;;;;1.10;1.10;;;;;;;18.40;28.67;101109.81;4983462;28;20116;-64
2022/10/16 10:37:02;;;;;;;1.20;1.20;;;;;;;18.43;28.64;101100.91;4981823;28;20054;-65
2022/10/16 10:39:36;;;;;;;1.20;1.20;;;;;;;18.32;28.81;101116.00;4977439;28;20101;-68
2022/10/16 10:42:15;;;;;;;1.10;1.10;;;;;;;17.77;29.37;101092.22;4970314;28;20447;-65
2022/10/16 10:44:57;;;;;;;1.13;1.10;;;;;;;17.98;29.38;101105.84;4980686;28;20054;-65
2022/10/16 10:47:33;;;;;;;1.10;1.10;;;;;;;18.18;29.17;101095.69;4980015;28;20425;-65
2022/10/16 10:50:12;;;;;;;1.10;1.10;;;;;;;18.54;28.63;101111.88;4981263;28;20050;-65
2022/10/16 10:52:59;;;;;;;1.10;1.10;;;;;;;19.17;27.78;101092.41;4984048;28;20055;-65
2022/10/16 10:55:36;;;;;;;1.10;1.10;;;;;;;19.25;28.23;101094.53;4982122;28;20145;-65
2022/10/16 10:58:29;;;;;;;1.10;1.10;;;;;;;18.95;28.01;101104.94;4983382;28;20149;-65
2022/10/16 11:01:00;;;;;;;1.17;1.17;;;;;;;18.63;28.64;101085.13;4981709;28;20061;-65
2022/10/16 11:03:42;;;;;;;1.20;1.20;;;;;;;18.90;28.33;101094.75;4984017;28;20046;-65
2022/10/16 11:06:12;;;;;;;1.30;1.20;;;;;;;18.63;28.50;101090.69;4986991;28;20542;-65
2022/10/16 11:08:43;;;;;;;1.38;1.20;;;;;;;18.65;28.55;101073.78;4981064;28;20464;-65
2022/10/16 11:11:14;;;;;;;1.25;1.20;;;;;;;19.15;28.29;101091.91;4985293;28;20050;-66
2022/10/16 11:13:49;;;;;;;1.30;1.20;;;;;;;19.17;27.94;101081.34;4981278;28;20097;-68
2022/10/16 11:16:21;;;;;;;1.30;1.20;;;;;;;19.25;28.45;101083.44;4982846;28;20050;-66
2022/10/16 11:18:55;;;;;;;1.30;1.20;;;;;;;19.21;28.10;101079.63;4983557;28;20532;-66
2022/10/16 11:21:24;;;;;;;1.30;1.20;;;;;;;19.52;27.80;101081.88;4984923;28;20050;-66
2022/10/16 11:23:56;;;;;;;1.30;1.20;;;;;;;19.95;27.42;101073.31;4985748;28;20050;-66
2022/10/16 11:26:27;;;;;;;1.30;1.20;;;;;;;20.22;26.63;101085.56;4979263;28;20051;-66
2022/10/16 11:28:55;;;;;;;1.30;1.20;;;;;;;19.74;27.40;101083.13;4966488;28;20165;-66
2022/10/16 11:31:32;;;;;;;1.30;1.20;;;;;;;19.42;27.53;101103.09;4964622;28;20269;-66
2022/10/16 11:34:02;;;;;;;;;;;;;;;19.26;27.95;101080.34;4960119;28;20058;-64
2022/10/16 11:36:36;;;;;;;1.30;1.20;;;;;;;19.55;27.38;101073.75;4964736;28;19925;-64
2022/10/16 11:39:17;;;;;;;1.30;1.20;;;;;;;19.49;27.58;101068.59;4979358;28;20053;-64